Time;durP1;ratioP1;P1;durP2;ratioP2;P2;SDS_P1;SDS_P2;PMS_P1;PMS_P2;Temp;Humidity;BMP_temperature;BMP_pressure;BME280_temperature;BME280_humidity;BME280_pressure;Samples;Min_cycle;Max_cycle;Signal;HPM_P1;HPM_P2
2021/10/24 00:02:03;;;;;;;;;;;;;;;2.69;100.00;102329.09;5093503;28;19924;-74
2021/10/24 00:04:30;;;;;;;;;;;;;;;2.73;100.00;102337.97;5093585;28;19950;-75
2021/10/24 00:06:56;;;;;;;;;;;;;;;2.74;100.00;102335.25;5093301;28;19982;-75
2021/10/24 00:09:22;;;;;;;;;;;;;;;2.74;100.00;102340.59;5093472;28;20035;-74
2021/10/24 00:11:49;;;;;;;;;;;;;;;2.79;100.00;102337.81;5093429;28;20027;-74
2021/10/24 00:14:15;;;;;;;;;;;;;;;2.82;100.00;102337.75;5093320;28;20022;-74
2021/10/24 00:16:42;;;;;;;;;;;;;;;2.83;100.00;102342.19;5093147;28;20035;-74
2021/10/24 00:19:09;;;;;;;;;;;;;;;2.84;100.00;102344.81;5093310;28;20022;-75
2021/10/24 00:21:35;;;;;;;;;;;;;;;2.89;100.00;102335.81;5093116;28;19932;-74
2021/10/24 00:24:01;;;;;;;;;;;;;;;2.92;100.00;102336.59;5093497;28;19927;-75
2021/10/24 00:26:28;;;;;;;;;;;;;;;2.91;100.00;102342.88;5092814;28;19977;-75
2021/10/24 00:28:54;;;;;;;;;;;;;;;2.91;100.00;102340.19;5093168;28;19924;-75
2021/10/24 00:31:20;;;;;;;;;;;;;;;2.90;100.00;102343.81;5093088;28;19971;-74
2021/10/24 00:33:48;;;;;;;;;;;;;;;2.85;100.00;102340.34;5093047;28;19978;-74
2021/10/24 00:36:14;;;;;;;;;;;;;;;2.85;100.00;102335.00;5074516;28;19969;-74
2021/10/24 00:38:40;;;;;;;;;;;;;;;2.85;100.00;102341.22;5092872;28;20001;-74
2021/10/24 00:41:07;;;;;;;;;;;;;;;2.85;100.00;102340.34;5092915;28;19973;-75
2021/10/24 00:43:33;;;;;;;;;;;;;;;2.82;100.00;102340.44;5064849;28;19928;-75
2021/10/24 00:45:59;;;;;;;;;;;;;;;2.80;100.00;102335.06;5054447;28;19960;-75
2021/10/24 00:48:26;;;;;;;;;;;;;;;2.79;100.00;102333.34;5072447;28;19932;-75
2021/10/24 00:50:54;;;;;;;;;;;;;;;2.76;100.00;102338.75;5072367;28;19997;-75
2021/10/24 00:53:20;;;;;;;;;;;;;;;2.72;100.00;102338.88;5072201;28;19924;-75
2021/10/24 00:55:46;;;;;;;;;;;;;;;2.69;100.00;102337.13;5072612;28;20459;-74
2021/10/24 00:58:15;;;;;;;;;;;;;;;2.65;100.00;102336.31;5056500;28;19968;-74
2021/10/24 01:00:41;;;;;;;;;;;;;;;2.65;100.00;102335.44;5072451;28;19925;-74
2021/10/24 01:03:08;;;;;;;;;;;;;;;2.59;100.00;102332.88;5072363;28;20011;-74
2021/10/24 01:05:36;;;;;;;;;;;;;;;2.57;100.00;102330.25;5070860;28;19925;-75
2021/10/24 01:08:05;;;;;;;;;;;;;;;2.58;100.00;102329.34;5087672;28;20439;-74
2021/10/24 01:10:32;;;;;;;;;;;;;;;2.58;100.00;102325.75;5071891;28;19925;-74
2021/10/24 01:12:58;;;;;;;;;;;;;;;2.58;100.00;102326.66;5072146;28;19928;-74
2021/10/24 01:15:24;;;;;;;;;;;;;;;2.54;100.00;102324.06;5087338;28;19928;-75
2021/10/24 01:17:51;;;;;;;;;;;;;;;2.50;100.00;102324.13;5053986;28;19924;-76
2021/10/24 01:20:19;;;;;;;;;;;;;;;2.46;100.00;102325.13;5087411;28;19928;-75
2021/10/24 01:22:47;;;;;;;;;;;;;;;2.42;100.00;102323.44;5087709;28;20015;-75
2021/10/24 01:25:14;;;;;;;;;;;;;;;2.35;100.00;102327.13;5087470;28;19925;-75
2021/10/24 01:27:41;;;;;;;;;;;;;;;2.34;100.00;102317.34;5087331;28;20562;-76
2021/10/24 01:30:08;;;;;;;;;;;;;;;2.30;100.00;102321.03;5071741;28;19970;-76
2021/10/24 01:32:35;;;;;;;;;;;;;;;2.25;100.00;102318.41;5053826;28;19924;-76
2021/10/24 01:35:03;;;;;;;;;;;;;;;2.25;100.00;102323.78;5037168;28;20287;-76
2021/10/24 01:37:33;;;;;;;;;;;;;;;2.22;100.00;102307.78;5086980;28;19998;-76
2021/10/24 01:40:02;;;;;;;;;;;;;;;2.24;100.00;102313.09;5053711;28;19995;-75
2021/10/24 01:42:29;;;;;;;;;;;;;;;2.24;100.00;102313.97;5072141;28;20433;-76
2021/10/24 01:44:55;;;;;;;;;;;;;;;2.23;100.00;102314.00;5073502;28;20344;-76
2021/10/24 01:47:22;;;;;;;;;;;;;;;2.21;100.00;102308.69;5106615;28;19989;-75
2021/10/24 01:49:48;;;;;;;;;;;;;;;2.19;100.00;102315.84;5073668;28;19961;-75
2021/10/24 01:52:16;;;;;;;;;;;;;;;2.22;100.00;102312.22;5073421;28;19931;-75
2021/10/24 01:54:42;;;;;;;;;;;;;;;2.23;100.00;102312.22;5073410;28;19924;-75
2021/10/24 01:57:10;;;;;;;;;;;;;;;2.27;100.00;102316.59;5073111;28;19928;-76
2021/10/24 01:59:37;;;;;;;;;;;;;;;2.29;100.00;102312.06;5090390;28;19927;-75
2021/10/24 02:02:29;;;;;;;;;;;;;;;2.32;100.00;102316.50;5073344;28;20687;-75
2021/10/24 02:05:16;;;;;;;;;;;;;;;2.37;100.00;102317.28;5073099;28;19939;-75
2021/10/24 02:07:42;;;;;;;;;;;;;;;2.43;100.00;102316.25;5072299;28;19931;-75
2021/10/24 02:10:13;;;;;;;;;;;;;;;2.47;100.00;102316.19;5073069;28;19924;-75
2021/10/24 02:12:41;;;;;;;;;;;;;;;2.53;100.00;102323.19;5091322;28;19936;-75
2021/10/24 02:15:12;;;;;;;;;;;;;;;2.58;100.00;102313.25;5073246;28;19924;-75
2021/10/24 02:17:40;;;;;;;;;;;;;;;2.65;100.00;102322.91;5073230;28;19928;-75
2021/10/24 02:20:08;;;;;;;;;;;;;;;2.68;100.00;102320.16;5073126;28;20444;-75
2021/10/24 02:22:35;;;;;;;;;;;;;;;2.74;100.00;102321.84;5073153;28;19931;-75
2021/10/24 02:25:07;;;;;;;;;;;;;;;2.82;100.00;102318.97;5072920;28;19930;-75
2021/10/24 02:27:33;;;;;;;;;;;;;;;2.86;100.00;102315.31;5072756;28;19924;-75
2021/10/24 02:30:02;;;;;;;;;;;;;;;2.89;100.00;102301.81;5091105;28;19924;-74
2021/10/24 02:32:31;;;;;;;;;;;;;;;2.94;100.00;102309.72;5073008;28;19931;-76
2021/10/24 02:35:08;;;;;;;;;;;;;;;2.98;100.00;102309.63;5090944;28;19931;-75
2021/10/24 02:37:42;;;;;;;;;;;;;;;3.04;100.00;102308.59;5056011;28;20326;-75
2021/10/24 02:40:12;;;;;;;;;;;;;;;3.06;100.00;102311.25;5106691;28;19930;-76
2021/10/24 02:42:40;;;;;;;;;;;;;;;3.07;100.00;102302.28;5053755;28;19928;-75
2021/10/24 02:45:08;;;;;;;;;;;;;;;3.09;100.00;102304.00;5085864;28;20277;-75
2021/10/24 02:47:35;;;;;;;;;;;;;;;3.11;100.00;102299.47;5052646;28;19929;-75
2021/10/24 02:50:01;;;;;;;;;;;;;;;3.14;100.00;102303.88;5086324;28;19932;-74
2021/10/24 02:52:31;;;;;;;;;;;;;;;3.12;100.00;102306.59;5086309;28;19974;-74
2021/10/24 02:54:58;;;;;;;;;;;;;;;3.13;100.00;102304.81;5086375;28;19924;-75
2021/10/24 02:57:28;;;;;;;;;;;;;;;3.13;100.00;102308.38;5085768;28;19928;-75
2021/10/24 02:59:55;;;;;;;;;;;;;;;3.10;100.00;102303.09;5070661;28;20186;-75
2021/10/24 03:02:23;;;;;;;;;;;;;;;3.02;100.00;102302.41;5086006;28;19971;-75
2021/10/24 03:04:49;;;;;;;;;;;;;;;2.95;100.00;102303.44;5070770;28;19986;-76
2021/10/24 03:07:15;;;;;;;;;;;;;;;2.87;100.00;102302.75;5088440;28;19940;-75
2021/10/24 03:09:43;;;;;;;;;;;;;;;2.76;100.00;102313.75;5086307;28;20400;-75
2021/10/24 03:12:11;;;;;;;;;;;;;;;2.69;100.00;102310.31;5086036;28;20556;-75
2021/10/24 03:14:37;;;;;;;;;;;;;;;2.61;100.00;102314.97;5086125;28;19925;-76
2021/10/24 03:17:04;;;;;;;;;;;;;;;2.48;100.00;102319.72;5085874;28;19978;-76
2021/10/24 03:19:37;;;;;;;;;;;;;;;2.35;100.00;102316.41;5086684;28;19928;-75
2021/10/24 03:22:04;;;;;;;;;;;;;;;2.21;100.00;102321.22;5089940;28;19924;-75
2021/10/24 03:24:35;;;;;;;;;;;;;;;2.09;100.00;102323.22;5089789;28;19928;-76
2021/10/24 03:27:03;;;;;;;;;;;;;;;1.93;100.00;102321.75;5089513;28;19960;-77
2021/10/24 03:29:30;;;;;;;;;;;;;;;1.80;100.00;102327.38;5056420;28;19925;-76
2021/10/24 03:31:57;;;;;;;;;;;;;;;1.71;100.00;102327.53;5074008;28;20292;-76
2021/10/24 03:34:24;;;;;;;;;;;;;;;1.61;100.00;102328.59;5073917;28;20461;-76
2021/10/24 03:36:52;;;;;;;;;;;;;;;1.54;100.00;102319.78;5089383;28;19928;-76
2021/10/24 03:39:18;;;;;;;;;;;;;;;1.44;100.00;102329.78;5089422;28;19929;-76
2021/10/24 03:41:45;;;;;;;;;;;;;;;1.43;100.00;102336.06;5089699;28;19978;-76
2021/10/24 03:44:14;;;;;;;;;;;;;;;1.43;100.00;102337.81;5105080;28;19948;-75
2021/10/24 03:46:41;;;;;;;;;;;;;;;1.43;100.00;102337.81;5074637;28;19928;-75
2021/10/24 03:49:07;;;;;;;;;;;;;;;1.39;100.00;102342.38;5075689;28;20288;-76
2021/10/24 03:51:34;;;;;;;;;;;;;;;1.37;100.00;102343.31;5075504;28;19928;-75
2021/10/24 03:54:02;;;;;;;;;;;;;;;1.33;100.00;102343.31;5075322;28;19924;-75
2021/10/24 03:56:30;;;;;;;;;;;;;;;1.33;100.00;102340.66;5075341;28;20346;-74
2021/10/24 03:58:57;;;;;;;;;;;;;;;1.34;100.00;102341.56;5093771;28;19932;-74
2021/10/24 04:01:24;;;;;;;;;;;;;;;1.34;100.00;102346.91;5075851;28;19935;-73
2021/10/24 04:03:51;;;;;;;;;;;;;;;1.32;100.00;102346.94;5093606;28;19953;-73
2021/10/24 04:06:17;;;;;;;;;;;;;;;1.28;100.00;102349.69;5074896;28;19934;-73
2021/10/24 04:08:44;;;;;;;;;;;;;;;1.28;100.00;102344.31;5075340;28;19924;-73
2021/10/24 04:11:12;;;;;;;;;;;;;;;1.27;100.00;102346.13;5075080;28;19924;-74
2021/10/24 04:13:38;;;;;;;;;;;;;;;1.25;100.00;102345.25;5074559;28;19924;-73
2021/10/24 04:16:11;;;;;;;;;;;;;;;1.26;100.00;102346.16;5093053;28;19924;-73
2021/10/24 04:18:56;;;;;;;;;;;;;;;1.29;100.00;102346.09;5075218;28;20310;-73
2021/10/24 04:21:22;;;;;;;;;;;;;;;1.33;100.00;102348.69;5074904;28;19932;-73
2021/10/24 04:23:50;;;;;;;;;;;;;;;1.35;100.00;102356.72;5075119;28;20015;-74
2021/10/24 04:26:17;;;;;;;;;;;;;;;1.43;100.00;102344.06;5075000;28;19932;-74
2021/10/24 04:28:44;;;;;;;;;;;;;;;1.46;100.00;102352.03;5075141;28;19924;-73
2021/10/24 04:31:10;;;;;;;;;;;;;;;1.49;100.00;102349.31;5091959;28;19931;-74
2021/10/24 04:33:37;;;;;;;;;;;;;;;1.59;100.00;102352.72;5074916;28;20404;-73
2021/10/24 04:36:03;;;;;;;;;;;;;;;1.64;100.00;102348.19;5074738;28;19924;-74
2021/10/24 04:38:32;;;;;;;;;;;;;;;1.66;100.00;102348.16;5074461;28;19977;-73
2021/10/24 04:40:58;;;;;;;;;;;;;;;1.69;100.00;102349.88;5075077;28;19942;-74
2021/10/24 04:43:26;;;;;;;;;;;;;;;1.70;100.00;102344.50;5075064;28;19932;-74
2021/10/24 04:45:54;;;;;;;;;;;;;;;1.77;100.00;102343.47;5074415;28;20031;-74
2021/10/24 04:48:23;;;;;;;;;;;;;;;1.81;100.00;102346.97;5074429;28;19928;-74
2021/10/24 04:50:49;;;;;;;;;;;;;;;1.84;100.00;102344.22;5074381;28;19924;-73
2021/10/24 04:53:17;;;;;;;;;;;;;;;1.87;100.00;102348.66;5073946;28;19967;-73
2021/10/24 04:55:46;;;;;;;;;;;;;;;1.94;100.00;102355.69;5074857;28;19928;-72
2021/10/24 04:58:13;;;;;;;;;;;;;;;1.95;100.00;102352.06;5075515;28;19986;-73
2021/10/24 05:00:41;;;;;;;;;;;;;;;1.87;100.00;102354.00;5074524;28;20304;-73
2021/10/24 05:03:08;;;;;;;;;;;;;;;1.84;100.00;102355.84;5073659;28;19967;-73
2021/10/24 05:05:37;;;;;;;;;;;;;;;1.83;100.00;102354.06;5073970;28;19924;-72
2021/10/24 05:08:04;;;;;;;;;;;;;;;1.80;100.00;102353.22;5073767;28;19924;-72
2021/10/24 05:10:31;;;;;;;;;;;;;;;1.89;100.00;102353.06;5059499;28;19931;-72
2021/10/24 05:12:58;;;;;;;;;;;;;;;1.92;100.00;102357.47;5087578;28;19924;-72
2021/10/24 05:15:24;;;;;;;;;;;;;;;1.94;100.00;102363.72;5071892;28;19928;-73
2021/10/24 05:17:51;;;;;;;;;;;;;;;1.97;100.00;102355.59;5087348;28;19924;-73
2021/10/24 05:20:18;;;;;;;;;;;;;;;1.98;100.00;102365.41;5053917;28;20019;-72
2021/10/24 05:22:44;;;;;;;;;;;;;;;2.00;100.00;102358.22;5054016;28;20018;-72
2021/10/24 05:25:10;;;;;;;;;;;;;;;2.06;100.00;102355.44;5071374;28;20015;-72
2021/10/24 05:27:39;;;;;;;;;;;;;;;2.09;100.00;102360.72;5087291;28;20379;-73
2021/10/24 05:30:06;;;;;;;;;;;;;;;2.14;100.00;102356.16;5087436;28;19928;-72
2021/10/24 05:32:34;;;;;;;;;;;;;;;2.21;100.00;102356.91;5053739;28;20049;-72
2021/10/24 05:35:06;;;;;;;;;;;;;;;2.28;100.00;102357.66;5087266;28;20399;-72
2021/10/24 05:37:33;;;;;;;;;;;;;;;2.32;100.00;102357.56;5053305;28;19924;-72
2021/10/24 05:39:59;;;;;;;;;;;;;;;2.34;100.00;102363.78;5087157;28;20356;-72
2021/10/24 05:42:47;;;;;;;;;;;;;;;2.38;100.00;102361.94;5086031;28;20015;-72
2021/10/24 05:45:13;;;;;;;;;;;;;;;2.34;100.00;102354.88;5071401;28;19958;-72
2021/10/24 05:47:40;;;;;;;;;;;;;;;2.33;100.00;102350.44;5053399;28;20353;-72
2021/10/24 05:50:19;;;;;;;;;;;;;;;2.32;100.00;102349.53;5053450;28;20317;-72
2021/10/24 05:52:45;;;;;;;;;;;;;;;2.32;100.00;102357.56;5071184;28;20384;-72
2021/10/24 05:55:12;;;;;;;;;;;;;;;2.31;100.00;102354.91;5086770;28;20410;-72
2021/10/24 05:57:38;;;;;;;;;;;;;;;2.33;100.00;102356.66;5086700;28;19924;-73
2021/10/24 06:00:24;;;;;;;;;;;;;;;2.36;100.00;102357.53;5070702;28;20695;-72
2021/10/24 06:03:11;;;;;;;;;;;;;;;2.38;100.00;102356.56;5071039;28;20392;-73
2021/10/24 06:06:01;;;;;;;;;;;;;;;2.41;100.00;102356.50;5070612;28;19929;-72
2021/10/24 06:08:27;;;;;;;;;;;;;;;2.39;100.00;102360.13;5053084;28;20452;-72
2021/10/24 06:11:02;;;;;;;;;;;;;;;2.39;100.00;102363.69;5086627;28;19962;-73
2021/10/24 06:13:29;;;;;;;;;;;;;;;2.43;100.00;102364.50;5086627;28;19925;-73
2021/10/24 06:15:56;;;;;;;;;;;;;;;2.50;100.00;102361.66;5070592;28;19929;-73
2021/10/24 06:18:22;;;;;;;;;;;;;;;2.57;100.00;102373.16;5086239;28;20411;-72
2021/10/24 06:20:50;;;;;;;;;;;;;;;2.62;100.00;102367.66;5052649;28;20368;-72
2021/10/24 06:23:18;;;;;;;;;;;;;;;2.74;100.00;102364.75;5052868;28;19929;-72
2021/10/24 06:25:54;;;;;;;;;;;;;;;2.83;100.00;102372.59;5052710;28;19924;-72
2021/10/24 06:28:20;;;;;;;;;;;;;;;2.92;100.00;102370.59;5052806;28;19963;-72
2021/10/24 06:30:47;;;;;;;;;;;;;;;3.00;100.00;102373.97;5086412;28;19936;-72
2021/10/24 06:33:13;;;;;;;;;;;;;;;3.12;100.00;102378.19;5070390;28;19924;-72
2021/10/24 06:35:58;;;;;;;;;;;;;;;3.23;100.00;102372.56;5070435;28;20017;-72
2021/10/24 06:39:01;;;;;;;;;;;;;;;3.35;100.00;102378.53;5070619;28;19925;-72
2021/10/24 06:41:35;;;;;;;;;;;;;;;3.41;100.00;102377.47;5052565;28;19940;-72
2021/10/24 06:44:13;;;;;;;;;;;;;;;3.50;100.00;102381.72;5052658;28;20540;-73
2021/10/24 06:47:02;;;;;;;;;;;;;;;3.74;100.00;102387.41;5070490;28;20011;-71
2021/10/24 06:50:07;;;;;;;;;;;;;;;4.04;100.00;102383.00;5070190;28;19928;-71
2021/10/24 06:53:00;;;;;;;;;;;;;;;4.28;100.00;102388.63;5069795;28;20276;-72
2021/10/24 06:55:46;;;;;;;;;;;;;;;4.43;100.00;102388.19;5074444;28;19978;-72
2021/10/24 06:58:42;;;;;;;;;;;;;;;4.57;100.00;102389.59;5069555;28;19925;-72
2021/10/24 07:01:14;;;;;;;;;;;;;;;4.68;100.00;102390.16;5089912;28;20311;-72
2021/10/24 07:04:10;;;;;;;;;;;;;;;4.78;100.00;102380.00;5058148;28;19935;-72
2021/10/24 07:06:58;;;;;;;;;;;;;;;4.80;100.00;102386.22;5089664;28;19936;-72
2021/10/24 07:09:40;;;;;;;;;;;;;;;4.85;100.00;102381.56;5074157;28;19924;-72
2021/10/24 07:12:08;;;;;;;;;;;;;;;4.84;100.00;102386.06;5075131;28;20383;-72
2021/10/24 07:14:34;;;;;;;;;;;;;;;4.84;100.00;102380.69;5056411;28;19998;-72
2021/10/24 07:17:01;;;;;;;;;;;;;;;4.85;100.00;102366.31;5089653;28;19929;-72
2021/10/24 07:19:27;;;;;;;;;;;;;;;4.87;100.00;102382.41;5089676;28;20018;-72
2021/10/24 07:21:54;;;;;;;;;;;;;;;4.95;100.00;102392.94;5089809;28;19931;-72
2021/10/24 07:24:40;;;;;;;;;;;;;;;5.04;100.00;102381.88;5073710;28;19933;-72
2021/10/24 07:27:07;;;;;;;;;;;;;;;5.11;100.00;102380.75;5073357;28;19935;-72
2021/10/24 07:29:34;;;;;;;;;;;;;;;5.23;100.00;102371.41;5056048;28;19931;-72
2021/10/24 07:32:01;;;;;;;;;;;;;;;5.34;100.00;102376.44;5089460;28;19928;-72
2021/10/24 07:34:44;;;;;;;;;;;;;;;5.53;100.00;102382.06;5089445;28;19925;-72
2021/10/24 07:37:11;;;;;;;;;;;;;;;5.70;100.00;102377.03;5073455;28;19929;-72
2021/10/24 07:39:38;;;;;;;;;;;;;;;5.94;100.00;102371.69;5055792;28;19932;-72
2021/10/24 07:42:04;;;;;;;;;;;;;;;6.09;100.00;102369.41;5055611;28;19924;-72
2021/10/24 07:44:31;;;;;;;;;;;;;;;6.41;100.00;102373.63;5055699;28;19928;-72
2021/10/24 07:47:00;;;;;;;;;;;;;;;6.65;100.00;102360.13;5055271;28;20015;-72
2021/10/24 07:49:27;;;;;;;;;;;;;;;6.87;100.00;102369.16;5089125;28;20376;-72
2021/10/24 07:51:54;;;;;;;;;;;;;;;7.08;100.00;102361.16;5055609;28;20011;-72
2021/10/24 07:54:21;;;;;;;;;;;;;;;7.13;100.00;102351.00;5088933;28;19932;-72
2021/10/24 07:56:49;;;;;;;;;;;;;;;7.19;100.00;102356.19;5088712;28;19928;-72
2021/10/24 07:59:27;;;;;;;;;;;;;;;7.48;100.00;102354.09;5088972;28;19931;-72
2021/10/24 08:01:54;;;;;;;;;;;;;;;7.80;100.00;102362.66;5071654;28;19925;-72
2021/10/24 08:04:23;;;;;;;;;;;;;;;8.22;100.00;102347.28;5055170;28;20318;-72
2021/10/24 08:06:50;;;;;;;;;;;;;;;8.35;100.00;102343.06;5087533;28;19970;-72
2021/10/24 08:09:16;;;;;;;;;;;;;;;8.45;100.00;102343.53;5088634;28;20019;-72
2021/10/24 08:11:48;;;;;;;;;;;;;;;8.87;100.00;102339.75;5088420;28;19974;-72
2021/10/24 08:14:14;;;;;;;;;;;;;;;9.16;100.00;102340.13;5088486;28;20316;-72
2021/10/24 08:16:41;;;;;;;;;;;;;;;9.32;100.00;102336.66;5088309;28;19970;-72
2021/10/24 08:19:12;;;;;;;;;;;;;;;9.38;100.00;102339.94;5054460;28;19925;-72
2021/10/24 08:21:47;;;;;;;;;;;;;;;9.66;100.00;102334.94;5088441;28;20405;-71
2021/10/24 08:24:14;;;;;;;;;;;;;;;10.14;100.00;102338.75;5088360;28;19931;-71
2021/10/24 08:26:49;;;;;;;;;;;;;;;10.24;100.00;102332.81;5088249;28;19928;-71
2021/10/24 08:29:15;;;;;;;;;;;;;;;10.24;100.00;102335.53;5088233;28;20379;-72
2021/10/24 08:32:04;;;;;;;;;;;;;;;10.72;100.00;102322.94;5072645;28;19986;-71
2021/10/24 08:34:31;;;;;;;;;;;;;;;10.98;100.00;102315.13;5088002;28;20361;-71
2021/10/24 08:36:59;;;;;;;;;;;;;;;11.32;100.00;102321.34;5072115;28;19925;-72
2021/10/24 08:39:25;;;;;;;;;;;;;;;11.39;100.00;102317.28;5072305;28;19967;-71
2021/10/24 08:41:51;;;;;;;;;;;;;;;10.77;100.00;102319.94;5072284;28;19956;-71
2021/10/24 08:44:18;;;;;;;;;;;;;;;10.85;100.00;102313.13;5072097;28;19925;-71
2021/10/24 08:46:44;;;;;;;;;;;;;;;11.08;100.00;102310.03;5087643;28;19982;-71
2021/10/24 08:49:11;;;;;;;;;;;;;;;11.16;100.00;102311.34;5072143;28;20014;-71
2021/10/24 08:51:37;;;;;;;;;;;;;;;11.59;100.00;102307.91;5072281;28;19982;-72
2021/10/24 08:54:07;;;;;;;;;;;;;;;11.81;100.00;102312.94;5087786;28;19932;-71
2021/10/24 08:56:34;;;;;;;;;;;;;;;11.83;100.00;102299.22;5071588;28;19928;-71
2021/10/24 08:59:01;;;;;;;;;;;;;;;11.54;100.00;102310.03;5072158;28;19924;-71
2021/10/24 09:01:27;;;;;;;;;;;;;;;11.56;100.00;102308.97;5071961;28;19968;-70
2021/10/24 09:04:04;;;;;;;;;;;;;;;11.15;100.00;102303.28;5072001;28;19935;-71
2021/10/24 09:06:43;;;;;;;;;;;;;;;11.70;100.00;102309.97;5071769;28;19971;-71
2021/10/24 09:09:12;;;;;;;;;;;;;;;11.67;100.00;102302.00;5087601;28;20035;-71
2021/10/24 09:11:40;;;;;;;;;;;;;;;12.01;100.00;102302.69;5071797;28;19956;-71
2021/10/24 09:14:06;;;;;;;;;;;;;;;12.35;100.00;102300.56;5071492;28;20299;-71
2021/10/24 09:16:51;;;;;;;;;;;;;;;12.53;100.00;102299.38;5073979;28;20110;-72
2021/10/24 09:19:17;;;;;;;;;;;;;;;12.71;100.00;102285.53;5071642;28;20019;-71
2021/10/24 09:21:43;;;;;;;;;;;;;;;12.66;100.00;102287.69;5071572;28;20313;-71
2021/10/24 09:24:14;;;;;;;;;;;;;;;12.64;100.00;102285.06;5071583;28;19932;-72
2021/10/24 09:26:41;;;;;;;;;;;;;;;12.23;100.00;102285.88;5071156;28;20127;-71
2021/10/24 09:29:08;;;;;;;;;;;;;;;11.55;100.00;102293.63;5071292;28;19977;-71
2021/10/24 09:31:35;;;;;;;;;;;;;;;11.27;100.00;102285.38;5071260;28;19933;-70
2021/10/24 09:34:15;;;;;;;;;;;;;;;10.95;100.00;102282.72;5071110;28;20337;-71
2021/10/24 09:36:54;;;;;;;;;;;;;;;10.85;100.00;102290.50;5071046;28;19925;-71
2021/10/24 09:39:43;;;;;;;;;;;;;;;10.55;100.00;102283.16;5071275;28;19931;-70
2021/10/24 09:42:16;;;;;;;;;;;;;;;10.72;100.00;102290.34;5071068;28;20026;-71
2021/10/24 09:44:59;;;;;;;;;;;;;;;10.66;100.00;102291.59;5071148;28;20363;-70
2021/10/24 09:47:25;;;;;;;;;;;;;;;10.53;100.00;102293.25;5070614;28;19929;-71
2021/10/24 09:49:52;;;;;;;;;;;;;;;10.54;100.00;102289.53;5070781;28;19925;-71
2021/10/24 09:52:25;;;;;;;;;;;;;;;10.17;100.00;102286.16;5070883;28;20024;-70
2021/10/24 09:54:52;;;;;;;;;;;;;;;10.14;100.00;102291.72;5070948;28;19928;-70
2021/10/24 09:57:20;;;;;;;;;;;;;;;10.40;100.00;102287.59;5070522;28;19925;-71
2021/10/24 09:59:49;;;;;;;;;;;;;;;10.39;100.00;102288.56;5070910;28;20014;-70
2021/10/24 10:02:16;;;;;;;;;;;;;;;10.43;100.00;102284.72;5070719;28;20301;-71
2021/10/24 10:04:42;;;;;;;;;;;;;;;10.68;100.00;102280.63;5070949;28;20364;-70
2021/10/24 10:07:08;;;;;;;;;;;;;;;10.70;100.00;102285.00;5070091;28;19925;-71
2021/10/24 10:09:34;;;;;;;;;;;;;;;10.73;100.00;102270.38;5070860;28;19931;-70
2021/10/24 10:12:04;;;;;;;;;;;;;;;10.91;100.00;102279.28;5070861;28;19967;-70
2021/10/24 10:14:31;;;;;;;;;;;;;;;11.32;100.00;102267.81;5070544;28;19928;-70
2021/10/24 10:16:59;;;;;;;;;;;;;;;11.76;100.00;102276.97;5070266;28;19964;-71
2021/10/24 10:19:30;;;;;;;;;;;;;;;12.09;100.00;102275.84;5070203;28;20011;-71
2021/10/24 10:21:56;;;;;;;;;;;;;;;11.71;100.00;102266.34;5052915;28;19928;-70
2021/10/24 10:24:41;;;;;;;;;;;;;;;11.59;100.00;102258.09;5070321;28;19928;-70
2021/10/24 10:27:36;;;;;;;;;;;;;;;11.38;100.00;102258.41;5070063;28;20019;-70
2021/10/24 10:30:07;;;;;;;;;;;;;;;11.27;100.00;102258.19;5070060;28;19951;-70
2021/10/24 10:32:34;;;;;;;;;;;;;;;11.05;100.00;102254.91;5070748;28;20021;-70
2021/10/24 10:35:05;;;;;;;;;;;;;;;11.02;100.00;102259.66;5070529;28;20043;-70
2021/10/24 10:37:42;;;;;;;;;;;;;;;11.33;100.00;102249.66;5070268;28;19960;-70
2021/10/24 10:40:12;;;;;;;;;;;;;;;11.69;100.00;102256.53;5086171;28;19924;-70
2021/10/24 10:42:55;;;;;;;;;;;;;;;11.75;100.00;102250.72;5070239;28;20019;-69
2021/10/24 10:45:37;;;;;;;;;;;;;;;11.50;100.00;102254.94;5051963;28;20373;-70
2021/10/24 10:48:06;;;;;;;;;;;;;;;11.41;100.00;102249.19;5070329;28;20023;-69
2021/10/24 10:50:43;;;;;;;;;;;;;;;11.64;100.00;102245.09;5070302;28;19931;-69
2021/10/24 10:53:10;;;;;;;;;;;;;;;11.45;100.00;102243.50;5070274;28;19989;-70
2021/10/24 10:55:55;;;;;;;;;;;;;;;11.57;100.00;102236.41;5070036;28;19985;-70
2021/10/24 10:58:28;;;;;;;;;;;;;;;11.72;100.00;102232.75;5070182;28;19943;-70
2021/10/24 11:00:56;;;;;;;;;;;;;;;11.72;100.00;102231.88;5070382;28;20363;-70
2021/10/24 11:03:38;;;;;;;;;;;;;;;11.30;100.00;102230.81;5069816;28;19924;-69
2021/10/24 11:06:04;;;;;;;;;;;;;;;11.47;100.00;102219.78;5069623;28;20355;-69
2021/10/24 11:08:50;;;;;;;;;;;;;;;11.46;100.00;102220.75;5070061;28;20019;-69
2021/10/24 11:11:31;;;;;;;;;;;;;;;11.55;100.00;102213.88;5070171;28;20353;-71
2021/10/24 11:13:57;;;;;;;;;;;;;;;11.99;100.00;102206.66;5069413;28;20466;-70
2021/10/24 11:16:40;;;;;;;;;;;;;;;12.20;100.00;102204.41;5069567;28;20066;-70
2021/10/24 11:19:21;;;;;;;;;;;;;;;11.98;100.00;102204.91;5069823;28;19925;-70
2021/10/24 11:21:48;;;;;;;;;;;;;;;12.39;100.00;102204.94;5069083;28;20454;-70
2021/10/24 11:24:15;;;;;;;;;;;;;;;12.58;100.00;102189.25;5069842;28;20447;-70
2021/10/24 11:26:42;;;;;;;;;;;;;;;12.42;100.00;102195.69;5072177;28;20365;-69
2021/10/24 11:29:09;;;;;;;;;;;;;;;12.64;100.00;102189.72;5069925;28;19925;-70
2021/10/24 11:31:35;;;;;;;;;;;;;;;12.37;100.00;102189.69;5069886;28;19925;-69
2021/10/24 11:34:04;;;;;;;;;;;;;;;12.48;100.00;102187.13;5069894;28;20358;-70
2021/10/24 11:36:30;;;;;;;;;;;;;;;12.66;100.00;102185.03;5069506;28;19935;-70
2021/10/24 11:38:57;;;;;;;;;;;;;;;13.16;100.00;102178.94;5069766;28;19924;-71
2021/10/24 11:41:24;;;;;;;;;;;;;;;13.54;100.00;102179.03;5071911;28;19964;-70
2021/10/24 11:43:51;;;;;;;;;;;;;;;13.20;100.00;102177.75;5073397;28;20359;-69
2021/10/24 11:46:17;;;;;;;;;;;;;;;12.77;100.00;102170.66;5072927;28;20342;-69
2021/10/24 11:48:43;;;;;;;;;;;;;;;12.84;100.00;102169.28;5073454;28;19928;-69
2021/10/24 11:51:11;;;;;;;;;;;;;;;12.88;100.00;102162.66;5073330;28;20019;-69
2021/10/24 11:53:39;;;;;;;;;;;;;;;13.04;100.00;102162.47;5073105;28;20034;-69
2021/10/24 11:56:06;;;;;;;;;;;;;;;13.28;100.00;102158.13;5072882;28;20275;-70
2021/10/24 11:58:51;;;;;;;;;;;;;;;13.28;100.00;102150.84;5072765;28;20410;-69
2021/10/24 12:01:18;;;;;;;;;;;;;;;13.23;100.00;102144.84;5073026;28;19924;-69
2021/10/24 12:03:52;;;;;;;;;;;;;;;13.34;100.00;102157.72;5073013;28;20467;-71
2021/10/24 12:06:40;;;;;;;;;;;;;;;13.59;100.00;102151.44;5072818;28;20531;-71
2021/10/24 12:09:06;;;;;;;;;;;;;;;13.99;100.00;102142.19;5054918;28;19952;-71
2021/10/24 12:11:43;;;;;;;;;;;;;;;14.34;100.00;102144.19;5072835;28;19925;-71
2021/10/24 12:14:09;;;;;;;;;;;;;;;13.76;97.15;102138.41;5072492;28;19928;-70
2021/10/24 12:16:38;;;;;;;;;;;;;;;13.68;99.18;102138.97;5073443;28;20022;-70
2021/10/24 12:19:09;;;;;;;;;;;;;;;13.41;97.88;102134.50;5056013;28;20018;-70
2021/10/24 12:21:37;;;;;;;;;;;;;;;13.18;100.00;102125.19;5088368;28;19951;-69
2021/10/24 12:24:16;;;;;;;;;;;;;;;13.40;100.00;102121.84;5072808;28;19928;-70
2021/10/24 12:26:44;;;;;;;;;;;;;;;13.33;100.00;102115.91;5054482;28;19951;-70
2021/10/24 12:29:15;;;;;;;;;;;;;;;13.96;100.00;102110.53;5088042;28;20084;-70
2021/10/24 12:31:41;;;;;;;;;;;;;;;13.98;96.96;102110.44;5072176;28;19982;-70
2021/10/24 12:34:11;;;;;;;;;;;;;;;13.58;97.37;102103.31;5072341;28;19931;-69
2021/10/24 12:36:39;;;;;;;;;;;;;;;13.84;99.71;102106.88;5072298;28;19928;-70
2021/10/24 12:39:07;;;;;;;;;;;;;;;13.65;100.00;102104.59;5088117;28;19924;-69
2021/10/24 12:41:35;;;;;;;;;;;;;;;13.69;100.00;102103.38;5072281;28;20018;-69
2021/10/24 12:44:03;;;;;;;;;;;;;;;14.16;97.57;102084.50;5072226;28;20471;-70
2021/10/24 12:46:30;;;;;;;;;;;;;;;14.20;99.61;102093.31;5071724;28;20288;-70
2021/10/24 12:48:57;;;;;;;;;;;;;;;14.44;96.85;102090.59;5072112;28;19931;-69